sensor_id;sensor_type;location;lat;lon;timestamp;P1;durP1;ratioP1;P2;durP2;ratioP2
16326;SDS011;34812;49.846;9.610;2023-06-26T00:03:59;3.70;;;2.60;;
16326;SDS011;34812;49.846;9.610;2023-06-26T00:09:04;4.10;;;3.60;;
16326;SDS011;34812;49.846;9.610;2023-06-26T00:14:06;3.85;;;2.90;;
16326;SDS011;34812;49.846;9.610;2023-06-26T00:19:08;3.05;;;2.63;;
16326;SDS011;34812;49.846;9.610;2023-06-26T00:24:12;2.67;;;2.30;;
16326;SDS011;34812;49.846;9.610;2023-06-26T00:29:14;6.65;;;3.20;;
16326;SDS011;34812;49.846;9.610;2023-06-26T00:34:16;3.60;;;2.60;;
16326;SDS011;34812;49.846;9.610;2023-06-26T00:39:21;2.92;;;2.25;;
16326;SDS011;34812;49.846;9.610;2023-06-26T00:44:25;3.30;;;2.70;;
16326;SDS011;34812;49.846;9.610;2023-06-26T00:49:27;3.88;;;2.85;;
16326;SDS011;34812;49.846;9.610;2023-06-26T00:54:31;3.05;;;2.50;;
16326;SDS011;34812;49.846;9.610;2023-06-26T00:59:34;2.90;;;2.60;;
16326;SDS011;34812;49.846;9.610;2023-06-26T01:04:36;8.25;;;3.10;;
16326;SDS011;34812;49.846;9.610;2023-06-26T01:09:42;3.50;;;2.63;;
16326;SDS011;34812;49.846;9.610;2023-06-26T01:14:44;3.53;;;2.90;;
16326;SDS011;34812;49.846;9.610;2023-06-26T01:19:46;5.03;;;3.47;;
16326;SDS011;34812;49.846;9.610;2023-06-26T01:24:56;3.60;;;3.05;;
16326;SDS011;34812;49.846;9.610;2023-06-26T01:30:05;5.18;;;2.75;;
16326;SDS011;34812;49.846;9.610;2023-06-26T01:35:09;4.22;;;3.17;;
16326;SDS011;34812;49.846;9.610;2023-06-26T01:40:12;3.65;;;2.83;;
16326;SDS011;34812;49.846;9.610;2023-06-26T01:45:17;5.25;;;3.38;;
16326;SDS011;34812;49.846;9.610;2023-06-26T01:50:22;4.13;;;2.75;;
16326;SDS011;34812;49.846;9.610;2023-06-26T01:55:28;4.93;;;3.17;;
16326;SDS011;34812;49.846;9.610;2023-06-26T02:00:34;7.63;;;3.47;;
16326;SDS011;34812;49.846;9.610;2023-06-26T02:05:37;3.47;;;3.08;;
16326;SDS011;34812;49.846;9.610;2023-06-26T02:10:40;3.42;;;3.13;;
16326;SDS011;34812;49.846;9.610;2023-06-26T02:15:43;4.00;;;3.60;;
16326;SDS011;34812;49.846;9.610;2023-06-26T02:20:45;4.20;;;3.60;;
16326;SDS011;34812;49.846;9.610;2023-06-26T02:25:47;3.92;;;3.40;;
16326;SDS011;34812;49.846;9.610;2023-06-26T02:30:50;5.03;;;3.63;;
16326;SDS011;34812;49.846;9.610;2023-06-26T02:35:53;5.75;;;3.88;;
16326;SDS011;34812;49.846;9.610;2023-06-26T02:40:55;4.80;;;3.43;;
16326;SDS011;34812;49.846;9.610;2023-06-26T02:45:58;4.87;;;4.20;;
16326;SDS011;34812;49.846;9.610;2023-06-26T02:51:00;4.93;;;3.17;;
16326;SDS011;34812;49.846;9.610;2023-06-26T02:56:06;4.83;;;3.00;;
16326;SDS011;34812;49.846;9.610;2023-06-26T03:01:11;5.10;;;3.03;;
16326;SDS011;34812;49.846;9.610;2023-06-26T03:06:14;6.70;;;3.85;;
16326;SDS011;34812;49.846;9.610;2023-06-26T03:11:18;6.50;;;4.10;;
16326;SDS011;34812;49.846;9.610;2023-06-26T03:16:22;4.60;;;3.37;;
16326;SDS011;34812;49.846;9.610;2023-06-26T03:21:24;6.13;;;4.00;;
16326;SDS011;34812;49.846;9.610;2023-06-26T03:26:26;6.47;;;3.43;;
16326;SDS011;34812;49.846;9.610;2023-06-26T03:31:30;4.20;;;3.80;;
16326;SDS011;34812;49.846;9.610;2023-06-26T03:36:33;4.97;;;3.60;;
16326;SDS011;34812;49.846;9.610;2023-06-26T03:41:37;4.00;;;3.53;;
16326;SDS011;34812;49.846;9.610;2023-06-26T03:46:40;5.13;;;3.77;;
16326;SDS011;34812;49.846;9.610;2023-06-26T03:51:43;4.37;;;3.43;;
16326;SDS011;34812;49.846;9.610;2023-06-26T03:56:45;3.80;;;3.23;;
16326;SDS011;34812;49.846;9.610;2023-06-26T04:01:48;4.70;;;3.33;;
16326;SDS011;34812;49.846;9.610;2023-06-26T04:06:50;3.77;;;3.37;;
16326;SDS011;34812;49.846;9.610;2023-06-26T04:11:54;4.23;;;3.30;;
16326;SDS011;34812;49.846;9.610;2023-06-26T04:16:58;4.30;;;3.40;;
16326;SDS011;34812;49.846;9.610;2023-06-26T04:22:02;4.20;;;3.50;;
16326;SDS011;34812;49.846;9.610;2023-06-26T04:27:04;5.87;;;3.00;;
16326;SDS011;34812;49.846;9.610;2023-06-26T04:32:08;3.78;;;2.95;;
16326;SDS011;34812;49.846;9.610;2023-06-26T04:37:10;3.83;;;3.17;;
16326;SDS011;34812;49.846;9.610;2023-06-26T04:42:16;7.00;;;4.18;;
16326;SDS011;34812;49.846;9.610;2023-06-26T04:47:20;4.22;;;3.65;;
16326;SDS011;34812;49.846;9.610;2023-06-26T04:52:22;4.45;;;3.42;;
16326;SDS011;34812;49.846;9.610;2023-06-26T04:57:24;9.07;;;3.70;;
16326;SDS011;34812;49.846;9.610;2023-06-26T05:02:28;5.65;;;3.80;;
16326;SDS011;34812;49.846;9.610;2023-06-26T05:07:30;7.97;;;4.50;;
16326;SDS011;34812;49.846;9.610;2023-06-26T05:12:32;4.68;;;3.70;;
16326;SDS011;34812;49.846;9.610;2023-06-26T05:17:35;7.90;;;4.20;;
16326;SDS011;34812;49.846;9.610;2023-06-26T05:22:37;4.97;;;3.95;;
16326;SDS011;34812;49.846;9.610;2023-06-26T05:27:40;4.57;;;3.72;;
16326;SDS011;34812;49.846;9.610;2023-06-26T05:32:44;7.45;;;4.45;;
16326;SDS011;34812;49.846;9.610;2023-06-26T05:37:48;4.82;;;3.45;;
16326;SDS011;34812;49.846;9.610;2023-06-26T05:42:51;5.40;;;3.85;;
16326;SDS011;34812;49.846;9.610;2023-06-26T05:47:55;5.65;;;3.45;;
16326;SDS011;34812;49.846;9.610;2023-06-26T05:52:57;4.65;;;3.85;;
16326;SDS011;34812;49.846;9.610;2023-06-26T05:58:01;4.93;;;3.42;;
16326;SDS011;34812;49.846;9.610;2023-06-26T06:03:05;4.03;;;3.63;;
16326;SDS011;34812;49.846;9.610;2023-06-26T06:08:07;5.53;;;3.65;;
16326;SDS011;34812;49.846;9.610;2023-06-26T06:13:09;6.32;;;3.70;;
16326;SDS011;34812;49.846;9.610;2023-06-26T06:18:12;5.60;;;3.58;;
16326;SDS011;34812;49.846;9.610;2023-06-26T06:23:14;5.97;;;3.35;;
16326;SDS011;34812;49.846;9.610;2023-06-26T06:28:16;4.32;;;3.15;;
16326;SDS011;34812;49.846;9.610;2023-06-26T06:33:20;4.47;;;3.42;;
16326;SDS011;34812;49.846;9.610;2023-06-26T06:38:22;4.43;;;3.78;;
16326;SDS011;34812;49.846;9.610;2023-06-26T06:43:24;7.88;;;4.15;;
16326;SDS011;34812;49.846;9.610;2023-06-26T06:48:27;5.60;;;3.53;;
16326;SDS011;34812;49.846;9.610;2023-06-26T06:53:30;4.45;;;3.35;;
16326;SDS011;34812;49.846;9.610;2023-06-26T06:58:32;4.93;;;3.05;;
16326;SDS011;34812;49.846;9.610;2023-06-26T07:03:37;4.82;;;3.58;;
16326;SDS011;34812;49.846;9.610;2023-06-26T07:08:39;8.27;;;3.50;;
16326;SDS011;34812;49.846;9.610;2023-06-26T07:13:41;7.03;;;3.45;;
16326;SDS011;34812;49.846;9.610;2023-06-26T07:18:45;6.97;;;4.07;;
16326;SDS011;34812;49.846;9.610;2023-06-26T07:23:47;3.95;;;3.28;;
16326;SDS011;34812;49.846;9.610;2023-06-26T07:28:49;3.75;;;3.30;;
16326;SDS011;34812;49.846;9.610;2023-06-26T07:33:52;6.25;;;2.92;;
16326;SDS011;34812;49.846;9.610;2023-06-26T07:38:55;4.63;;;3.20;;
16326;SDS011;34812;49.846;9.610;2023-06-26T07:43:57;6.07;;;4.13;;
16326;SDS011;34812;49.846;9.610;2023-06-26T07:49:01;5.78;;;3.80;;
16326;SDS011;34812;49.846;9.610;2023-06-26T07:54:03;3.60;;;3.03;;
16326;SDS011;34812;49.846;9.610;2023-06-26T07:59:05;4.03;;;3.63;;
16326;SDS011;34812;49.846;9.610;2023-06-26T08:04:09;7.47;;;3.40;;
16326;SDS011;34812;49.846;9.610;2023-06-26T08:09:11;4.35;;;3.05;;
16326;SDS011;34812;49.846;9.610;2023-06-26T08:14:13;4.60;;;2.97;;
16326;SDS011;34812;49.846;9.610;2023-06-26T08:19:17;7.40;;;3.25;;
16326;SDS011;34812;49.846;9.610;2023-06-26T08:24:19;4.60;;;2.83;;
16326;SDS011;34812;49.846;9.610;2023-06-26T08:29:21;4.85;;;3.33;;
16326;SDS011;34812;49.846;9.610;2023-06-26T08:34:24;4.15;;;2.95;;
16326;SDS011;34812;49.846;9.610;2023-06-26T08:39:26;3.53;;;3.20;;
16326;SDS011;34812;49.846;9.610;2023-06-26T08:44:29;4.40;;;3.38;;
16326;SDS011;34812;49.846;9.610;2023-06-26T08:49:37;5.22;;;3.15;;
16326;SDS011;34812;49.846;9.610;2023-06-26T08:54:45;6.13;;;3.03;;
16326;SDS011;34812;49.846;9.610;2023-06-26T08:59:47;5.63;;;3.65;;
16326;SDS011;34812;49.846;9.610;2023-06-26T09:04:51;3.70;;;3.35;;
16326;SDS011;34812;49.846;9.610;2023-06-26T09:09:53;6.07;;;4.18;;
16326;SDS011;34812;49.846;9.610;2023-06-26T09:14:55;5.60;;;3.10;;
16326;SDS011;34812;49.846;9.610;2023-06-26T09:19:59;4.90;;;3.28;;
16326;SDS011;34812;49.846;9.610;2023-06-26T09:25:01;3.60;;;2.80;;
16326;SDS011;34812;49.846;9.610;2023-06-26T09:30:03;3.65;;;3.22;;
16326;SDS011;34812;49.846;9.610;2023-06-26T09:35:08;3.10;;;2.75;;
16326;SDS011;34812;49.846;9.610;2023-06-26T09:40:10;3.60;;;2.55;;
16326;SDS011;34812;49.846;9.610;2023-06-26T09:45:18;3.13;;;2.63;;
16326;SDS011;34812;49.846;9.610;2023-06-26T09:50:23;7.63;;;3.10;;
16326;SDS011;34812;49.846;9.610;2023-06-26T09:55:27;2.90;;;2.45;;
16326;SDS011;34812;49.846;9.610;2023-06-26T10:00:29;4.00;;;3.00;;
16326;SDS011;34812;49.846;9.610;2023-06-26T10:05:33;4.45;;;3.00;;
16326;SDS011;34812;49.846;9.610;2023-06-26T10:10:35;4.93;;;2.70;;
16326;SDS011;34812;49.846;9.610;2023-06-26T10:15:39;4.18;;;3.15;;
16326;SDS011;34812;49.846;9.610;2023-06-26T10:20:43;3.85;;;3.20;;
16326;SDS011;34812;49.846;9.610;2023-06-26T10:25:48;5.85;;;3.35;;
16326;SDS011;34812;49.846;9.610;2023-06-26T10:30:50;3.10;;;2.78;;
16326;SDS011;34812;49.846;9.610;2023-06-26T10:35:55;3.05;;;2.55;;
16326;SDS011;34812;49.846;9.610;2023-06-26T10:41:13;2.92;;;2.53;;
16326;SDS011;34812;49.846;9.610;2023-06-26T10:46:17;2.67;;;2.47;;
16326;SDS011;34812;49.846;9.610;2023-06-26T10:51:20;2.90;;;2.30;;
16326;SDS011;34812;49.846;9.610;2023-06-26T11:01:40;3.45;;;2.53;;
16326;SDS011;34812;49.846;9.610;2023-06-26T11:06:46;4.63;;;2.95;;
16326;SDS011;34812;49.846;9.610;2023-06-26T11:11:55;3.05;;;2.25;;
16326;SDS011;34812;49.846;9.610;2023-06-26T11:16:59;2.90;;;2.40;;
16326;SDS011;34812;49.846;9.610;2023-06-26T11:22:05;3.15;;;2.65;;
16326;SDS011;34812;49.846;9.610;2023-06-26T11:27:07;2.10;;;1.90;;
16326;SDS011;34812;49.846;9.610;2023-06-26T11:32:09;3.25;;;2.85;;
16326;SDS011;34812;49.846;9.610;2023-06-26T11:37:12;2.85;;;2.63;;
16326;SDS011;34812;49.846;9.610;2023-06-26T11:42:18;3.13;;;2.70;;
16326;SDS011;34812;49.846;9.610;2023-06-26T11:47:20;4.88;;;3.05;;
16326;SDS011;34812;49.846;9.610;2023-06-26T11:52:24;4.25;;;3.17;;
16326;SDS011;34812;49.846;9.610;2023-06-26T11:57:26;3.72;;;3.03;;
16326;SDS011;34812;49.846;9.610;2023-06-26T12:02:28;4.72;;;3.22;;
16326;SDS011;34812;49.846;9.610;2023-06-26T12:07:32;4.32;;;3.08;;
16326;SDS011;34812;49.846;9.610;2023-06-26T12:12:35;5.38;;;2.70;;
16326;SDS011;34812;49.846;9.610;2023-06-26T12:17:37;5.38;;;3.47;;
16326;SDS011;34812;49.846;9.610;2023-06-26T12:22:41;3.20;;;2.90;;
16326;SDS011;34812;49.846;9.610;2023-06-26T12:27:44;6.15;;;2.97;;
16326;SDS011;34812;49.846;9.610;2023-06-26T12:32:47;4.30;;;3.13;;
16326;SDS011;34812;49.846;9.610;2023-06-26T12:37:51;6.60;;;3.13;;
16326;SDS011;34812;49.846;9.610;2023-06-26T12:42:55;4.10;;;2.60;;
16326;SDS011;34812;49.846;9.610;2023-06-26T12:48:06;3.55;;;3.03;;
16326;SDS011;34812;49.846;9.610;2023-06-26T12:53:09;4.88;;;2.72;;
16326;SDS011;34812;49.846;9.610;2023-06-26T12:58:12;6.63;;;2.90;;
16326;SDS011;34812;49.846;9.610;2023-06-26T13:03:14;3.58;;;2.80;;
16326;SDS011;34812;49.846;9.610;2023-06-26T13:08:18;4.40;;;2.97;;
16326;SDS011;34812;49.846;9.610;2023-06-26T13:13:20;4.63;;;2.83;;
16326;SDS011;34812;49.846;9.610;2023-06-26T13:18:23;4.38;;;2.55;;
16326;SDS011;34812;49.846;9.610;2023-06-26T13:23:26;3.10;;;2.50;;
16326;SDS011;34812;49.846;9.610;2023-06-26T13:28:28;3.28;;;2.78;;
16326;SDS011;34812;49.846;9.610;2023-06-26T13:33:31;4.97;;;2.92;;
16326;SDS011;34812;49.846;9.610;2023-06-26T13:38:34;5.75;;;2.72;;
16326;SDS011;34812;49.846;9.610;2023-06-26T13:43:36;3.25;;;2.60;;
16326;SDS011;34812;49.846;9.610;2023-06-26T13:48:38;8.02;;;3.08;;
16326;SDS011;34812;49.846;9.610;2023-06-26T13:53:42;9.85;;;2.35;;
16326;SDS011;34812;49.846;9.610;2023-06-26T13:58:44;3.67;;;2.05;;
16326;SDS011;34812;49.846;9.610;2023-06-26T14:03:46;5.10;;;2.17;;
16326;SDS011;34812;49.846;9.610;2023-06-26T14:08:50;4.63;;;2.45;;
16326;SDS011;34812;49.846;9.610;2023-06-26T14:13:52;2.53;;;2.15;;
16326;SDS011;34812;49.846;9.610;2023-06-26T14:18:56;3.85;;;2.70;;
16326;SDS011;34812;49.846;9.610;2023-06-26T14:23:59;6.13;;;2.50;;
16326;SDS011;34812;49.846;9.610;2023-06-26T14:29:02;3.58;;;2.75;;
16326;SDS011;34812;49.846;9.610;2023-06-26T14:34:04;3.45;;;2.80;;
16326;SDS011;34812;49.846;9.610;2023-06-26T14:39:08;3.95;;;2.67;;
16326;SDS011;34812;49.846;9.610;2023-06-26T14:44:10;3.72;;;2.50;;
16326;SDS011;34812;49.846;9.610;2023-06-26T14:49:12;3.67;;;2.63;;
16326;SDS011;34812;49.846;9.610;2023-06-26T14:54:16;8.93;;;3.33;;
16326;SDS011;34812;49.846;9.610;2023-06-26T14:59:18;2.35;;;2.15;;
16326;SDS011;34812;49.846;9.610;2023-06-26T15:04:20;4.40;;;2.30;;
16326;SDS011;34812;49.846;9.610;2023-06-26T15:09:24;6.82;;;3.15;;
16326;SDS011;34812;49.846;9.610;2023-06-26T15:14:26;5.13;;;2.85;;
16326;SDS011;34812;49.846;9.610;2023-06-26T15:19:28;4.03;;;2.30;;
16326;SDS011;34812;49.846;9.610;2023-06-26T15:24:31;7.47;;;3.25;;
16326;SDS011;34812;49.846;9.610;2023-06-26T15:29:33;2.95;;;2.47;;
16326;SDS011;34812;49.846;9.610;2023-06-26T15:34:35;2.83;;;2.25;;
16326;SDS011;34812;49.846;9.610;2023-06-26T15:39:40;3.90;;;2.38;;
16326;SDS011;34812;49.846;9.610;2023-06-26T15:44:42;2.60;;;2.00;;
16326;SDS011;34812;49.846;9.610;2023-06-26T15:49:44;3.30;;;2.03;;
16326;SDS011;34812;49.846;9.610;2023-06-26T15:54:48;3.03;;;2.25;;
16326;SDS011;34812;49.846;9.610;2023-06-26T15:59:50;2.65;;;1.75;;
16326;SDS011;34812;49.846;9.610;2023-06-26T16:04:52;6.05;;;2.45;;
16326;SDS011;34812;49.846;9.610;2023-06-26T16:09:55;3.85;;;2.20;;
16326;SDS011;34812;49.846;9.610;2023-06-26T16:14:58;3.58;;;1.70;;
16326;SDS011;34812;49.846;9.610;2023-06-26T16:20:00;5.43;;;1.42;;
16326;SDS011;34812;49.846;9.610;2023-06-26T16:25:03;3.65;;;1.40;;
16326;SDS011;34812;49.846;9.610;2023-06-26T16:30:06;1.75;;;1.50;;
16326;SDS011;34812;49.846;9.610;2023-06-26T16:35:08;2.05;;;1.42;;
16326;SDS011;34812;49.846;9.610;2023-06-26T16:40:12;3.20;;;1.20;;
16326;SDS011;34812;49.846;9.610;2023-06-26T16:45:14;3.85;;;1.33;;
16326;SDS011;34812;49.846;9.610;2023-06-26T16:50:17;1.45;;;1.23;;
16326;SDS011;34812;49.846;9.610;2023-06-26T16:55:21;1.85;;;1.23;;
16326;SDS011;34812;49.846;9.610;2023-06-26T17:00:23;4.43;;;1.42;;
16326;SDS011;34812;49.846;9.610;2023-06-26T17:05:28;1.70;;;1.05;;
16326;SDS011;34812;49.846;9.610;2023-06-26T17:10:31;3.05;;;1.15;;
16326;SDS011;34812;49.846;9.610;2023-06-26T17:15:33;2.88;;;1.23;;
16326;SDS011;34812;49.846;9.610;2023-06-26T17:20:37;2.33;;;1.17;;
16326;SDS011;34812;49.846;9.610;2023-06-26T17:25:41;3.60;;;1.10;;
16326;SDS011;34812;49.846;9.610;2023-06-26T17:30:43;3.25;;;1.00;;
16326;SDS011;34812;49.846;9.610;2023-06-26T17:35:46;1.65;;;0.75;;
16326;SDS011;34812;49.846;9.610;2023-06-26T17:40:50;1.75;;;0.73;;
16326;SDS011;34812;49.846;9.610;2023-06-26T17:45:52;2.70;;;1.33;;
16326;SDS011;34812;49.846;9.610;2023-06-26T17:50:54;1.73;;;0.75;;
16326;SDS011;34812;49.846;9.610;2023-06-26T17:55:58;2.70;;;1.13;;
16326;SDS011;34812;49.846;9.610;2023-06-26T18:01:00;2.03;;;1.00;;
16326;SDS011;34812;49.846;9.610;2023-06-26T18:06:02;1.05;;;0.63;;
16326;SDS011;34812;49.846;9.610;2023-06-26T18:11:05;4.22;;;0.98;;
16326;SDS011;34812;49.846;9.610;2023-06-26T18:16:07;1.65;;;0.98;;
16326;SDS011;34812;49.846;9.610;2023-06-26T18:21:10;3.63;;;1.08;;
16326;SDS011;34812;49.846;9.610;2023-06-26T18:26:15;3.03;;;1.20;;
16326;SDS011;34812;49.846;9.610;2023-06-26T18:31:17;1.08;;;0.85;;
16326;SDS011;34812;49.846;9.610;2023-06-26T18:36:21;1.10;;;0.82;;
16326;SDS011;34812;49.846;9.610;2023-06-26T18:41:25;3.10;;;0.95;;
16326;SDS011;34812;49.846;9.610;2023-06-26T18:46:27;3.38;;;1.08;;
16326;SDS011;34812;49.846;9.610;2023-06-26T18:51:29;1.50;;;0.85;;
16326;SDS011;34812;49.846;9.610;2023-06-26T18:56:33;0.60;;;0.60;;
16326;SDS011;34812;49.846;9.610;2023-06-26T19:01:35;2.38;;;0.82;;
16326;SDS011;34812;49.846;9.610;2023-06-26T19:06:38;6.20;;;1.42;;
16326;SDS011;34812;49.846;9.610;2023-06-26T19:11:41;1.08;;;0.80;;
16326;SDS011;34812;49.846;9.610;2023-06-26T19:16:44;1.67;;;0.85;;
16326;SDS011;34812;49.846;9.610;2023-06-26T19:21:46;3.20;;;1.55;;
16326;SDS011;34812;49.846;9.610;2023-06-26T19:26:49;1.95;;;0.70;;
16326;SDS011;34812;49.846;9.610;2023-06-26T19:31:52;3.33;;;1.15;;
16326;SDS011;34812;49.846;9.610;2023-06-26T19:36:55;3.00;;;0.90;;
16326;SDS011;34812;49.846;9.610;2023-06-26T19:41:58;1.17;;;0.98;;
16326;SDS011;34812;49.846;9.610;2023-06-26T19:47:00;1.17;;;0.70;;
16326;SDS011;34812;49.846;9.610;2023-06-26T19:52:04;2.55;;;1.17;;
16326;SDS011;34812;49.846;9.610;2023-06-26T19:57:07;1.25;;;0.85;;
16326;SDS011;34812;49.846;9.610;2023-06-26T20:02:10;2.60;;;1.30;;
16326;SDS011;34812;49.846;9.610;2023-06-26T20:07:12;0.98;;;0.70;;
16326;SDS011;34812;49.846;9.610;2023-06-26T20:12:16;2.35;;;0.98;;
16326;SDS011;34812;49.846;9.610;2023-06-26T20:17:19;1.65;;;0.80;;
16326;SDS011;34812;49.846;9.610;2023-06-26T20:22:21;1.20;;;0.82;;
16326;SDS011;34812;49.846;9.610;2023-06-26T20:27:25;2.08;;;0.90;;
16326;SDS011;34812;49.846;9.610;2023-06-26T20:32:28;1.40;;;0.65;;
16326;SDS011;34812;49.846;9.610;2023-06-26T20:37:30;1.55;;;0.90;;
16326;SDS011;34812;49.846;9.610;2023-06-26T20:42:34;2.60;;;1.08;;
16326;SDS011;34812;49.846;9.610;2023-06-26T20:47:37;3.78;;;0.80;;
16326;SDS011;34812;49.846;9.610;2023-06-26T20:52:43;1.65;;;0.75;;
16326;SDS011;34812;49.846;9.610;2023-06-26T20:57:46;2.50;;;0.60;;
16326;SDS011;34812;49.846;9.610;2023-06-26T21:02:48;0.50;;;0.50;;
16326;SDS011;34812;49.846;9.610;2023-06-26T21:07:50;0.98;;;0.93;;
16326;SDS011;34812;49.846;9.610;2023-06-26T21:12:54;3.38;;;0.93;;
16326;SDS011;34812;49.846;9.610;2023-06-26T21:17:56;0.80;;;0.80;;
16326;SDS011;34812;49.846;9.610;2023-06-26T21:22:58;2.75;;;0.70;;
16326;SDS011;34812;49.846;9.610;2023-06-26T21:28:01;0.52;;;0.52;;
16326;SDS011;34812;49.846;9.610;2023-06-26T21:33:03;1.98;;;0.65;;
16326;SDS011;34812;49.846;9.610;2023-06-26T21:38:06;1.35;;;0.70;;
16326;SDS011;34812;49.846;9.610;2023-06-26T21:43:09;1.08;;;0.70;;
16326;SDS011;34812;49.846;9.610;2023-06-26T21:48:11;2.22;;;0.60;;
16326;SDS011;34812;49.846;9.610;2023-06-26T21:53:14;1.25;;;0.73;;
16326;SDS011;34812;49.846;9.610;2023-06-26T21:58:17;1.40;;;0.63;;
16326;SDS011;34812;49.846;9.610;2023-06-26T22:03:19;2.88;;;0.90;;
16326;SDS011;34812;49.846;9.610;2023-06-26T22:08:21;1.52;;;0.77;;
16326;SDS011;34812;49.846;9.610;2023-06-26T22:13:25;2.92;;;1.00;;
16326;SDS011;34812;49.846;9.610;2023-06-26T22:18:27;1.05;;;0.70;;
16326;SDS011;34812;49.846;9.610;2023-06-26T22:23:29;5.45;;;0.75;;
16326;SDS011;34812;49.846;9.610;2023-06-26T22:28:32;2.55;;;0.70;;
16326;SDS011;34812;49.846;9.610;2023-06-26T22:33:34;0.90;;;0.60;;
16326;SDS011;34812;49.846;9.610;2023-06-26T22:38:36;1.40;;;0.80;;
16326;SDS011;34812;49.846;9.610;2023-06-26T22:43:40;1.25;;;0.57;;
16326;SDS011;34812;49.846;9.610;2023-06-26T22:48:42;2.35;;;0.70;;
16326;SDS011;34812;49.846;9.610;2023-06-26T22:53:44;2.92;;;0.80;;
16326;SDS011;34812;49.846;9.610;2023-06-26T22:58:47;0.60;;;0.47;;
16326;SDS011;34812;49.846;9.610;2023-06-26T23:03:49;1.77;;;0.80;;
16326;SDS011;34812;49.846;9.610;2023-06-26T23:08:51;1.48;;;1.00;;
16326;SDS011;34812;49.846;9.610;2023-06-26T23:13:55;0.90;;;0.52;;
16326;SDS011;34812;49.846;9.610;2023-06-26T23:18:57;1.23;;;0.70;;
16326;SDS011;34812;49.846;9.610;2023-06-26T23:23:59;1.67;;;0.80;;
16326;SDS011;34812;49.846;9.610;2023-06-26T23:29:03;0.93;;;0.63;;
16326;SDS011;34812;49.846;9.610;2023-06-26T23:34:05;2.05;;;1.25;;
16326;SDS011;34812;49.846;9.610;2023-06-26T23:39:08;3.17;;;0.57;;
16326;SDS011;34812;49.846;9.610;2023-06-26T23:44:11;2.55;;;0.70;;
16326;SDS011;34812;49.846;9.610;2023-06-26T23:49:14;2.10;;;1.05;;
16326;SDS011;34812;49.846;9.610;2023-06-26T23:54:16;1.20;;;0.75;;
16326;SDS011;34812;49.846;9.610;2023-06-26T23:59:19;1.15;;;0.80;;
